Time;durP1;ratioP1;P1;durP2;ratioP2;P2;SDS_P1;SDS_P2;PMS_P1;PMS_P2;Temp;Humidity;BMP_temperature;BMP_pressure;BME280_temperature;BME280_humidity;BME280_pressure;Samples;Min_cycle;Max_cycle;Signal;HPM_P1;HPM_P2
2024/01/13 00:01:09;;;;;;;0.20;0.20;;;2.80;99.90;;;;;;5063410;28;20040;-67
2024/01/13 00:03:35;;;;;;;0.22;0.22;;;2.80;99.90;;;;;;5050342;28;20047;-67
2024/01/13 00:06:01;;;;;;;0.25;0.25;;;2.80;99.90;;;;;;5048418;28;20048;-67
2024/01/13 00:08:26;;;;;;;0.65;0.22;;;2.90;99.90;;;;;;5063238;28;20407;-67
2024/01/13 00:10:52;;;;;;;0.30;0.28;;;2.90;99.90;;;;;;5054002;28;20041;-67
2024/01/13 00:13:17;;;;;;;0.40;0.40;;;2.90;99.90;;;;;;5080115;28;20491;-67
2024/01/13 00:15:43;;;;;;;0.10;0.10;;;2.80;99.90;;;;;;5068048;28;20123;-67
2024/01/13 00:18:08;;;;;;;0.17;0.17;;;2.80;99.90;;;;;;5060399;28;20036;-67
2024/01/13 00:20:34;;;;;;;0.20;0.20;;;2.80;99.90;;;;;;5065298;28;20051;-68
2024/01/13 00:22:59;;;;;;;0.30;0.30;;;2.90;99.90;;;;;;5059943;28;20458;-67
2024/01/13 00:25:25;;;;;;;0.43;0.43;;;2.90;99.90;;;;;;5061349;28;20090;-67
2024/01/13 00:27:51;;;;;;;0.10;0.10;;;2.90;99.90;;;;;;5061577;28;20392;-68
2024/01/13 00:30:16;;;;;;;0.17;0.17;;;2.90;99.90;;;;;;5065171;28;20498;-68
2024/01/13 00:32:42;;;;;;;0.55;0.55;;;2.90;99.90;;;;;;5060419;28;20526;-67
2024/01/13 00:35:08;;;;;;;0.20;0.20;;;3.00;99.90;;;;;;5063649;28;20044;-67
2024/01/13 00:37:34;;;;;;;0.10;0.10;;;2.90;99.90;;;;;;5062548;28;20047;-68
2024/01/13 00:40:00;;;;;;;0.95;0.35;;;2.90;99.90;;;;;;5067196;28;20028;-67
2024/01/13 00:42:25;;;;;;;0.30;0.30;;;2.90;99.90;;;;;;5064628;28;20513;-67
2024/01/13 00:44:51;;;;;;;0.25;0.25;;;2.90;99.90;;;;;;5062707;28;20051;-68
2024/01/13 00:47:16;;;;;;;0.45;0.45;;;3.00;99.90;;;;;;5091317;28;20041;-67
2024/01/13 00:49:42;;;;;;;0.10;0.10;;;3.00;99.90;;;;;;5066676;28;20136;-68
2024/01/13 00:52:09;;;;;;;0.20;0.20;;;3.00;99.90;;;;;;5061363;28;20024;-68
2024/01/13 00:54:35;;;;;;;0.40;0.40;;;2.90;99.90;;;;;;5072704;28;20475;-68
2024/01/13 00:57:00;;;;;;;0.65;0.30;;;3.00;99.90;;;;;;5069623;28;20051;-68
2024/01/13 00:59:26;;;;;;;0.30;0.30;;;2.90;99.90;;;;;;5060748;28;20067;-67
2024/01/13 01:01:51;;;;;;;0.32;0.32;;;3.00;99.90;;;;;;5065761;28;20089;-67
2024/01/13 01:04:17;;;;;;;0.20;0.20;;;3.00;99.90;;;;;;5061068;28;20090;-68
2024/01/13 01:06:42;;;;;;;0.15;0.15;;;3.00;99.90;;;;;;5068851;28;20051;-69
2024/01/13 01:09:08;;;;;;;0.10;0.10;;;3.00;99.90;;;;;;5060430;28;20045;-67
2024/01/13 01:11:34;;;;;;;0.45;0.45;;;3.00;99.90;;;;;;5062754;28;20041;-68
2024/01/13 01:13:59;;;;;;;0.50;0.50;;;3.00;99.90;;;;;;5057087;28;20140;-68
2024/01/13 01:16:25;;;;;;;1.33;0.38;;;3.00;99.90;;;;;;5059823;28;20041;-68
2024/01/13 01:18:52;;;;;;;0.50;0.40;;;2.90;99.90;;;;;;5059107;28;20647;-67
2024/01/13 01:21:18;;;;;;;0.80;0.80;;;3.00;99.90;;;;;;5084335;28;20160;-67
2024/01/13 01:23:43;;;;;;;1.23;0.68;;;3.00;99.90;;;;;;5062931;28;20131;-68
2024/01/13 01:26:09;;;;;;;0.13;0.13;;;3.00;99.90;;;;;;5068636;28;20032;-67
2024/01/13 01:28:34;;;;;;;0.63;0.63;;;2.90;99.90;;;;;;5061967;28;20152;-68
2024/01/13 01:31:00;;;;;;;0.38;0.38;;;3.00;99.90;;;;;;5062537;28;20040;-68
2024/01/13 01:33:26;;;;;;;2.42;1.42;;;2.90;99.90;;;;;;5059760;28;20138;-69
2024/01/13 01:35:51;;;;;;;0.10;0.10;;;3.00;99.90;;;;;;5068792;28;20036;-67
2024/01/13 01:38:17;;;;;;;0.63;0.63;;;3.00;99.90;;;;;;5043410;28;20036;-67
2024/01/13 01:40:43;;;;;;;0.50;0.43;;;2.90;99.90;;;;;;5063592;28;20043;-68
2024/01/13 01:43:09;;;;;;;0.17;0.17;;;2.90;99.90;;;;;;5059457;28;20455;-68
2024/01/13 01:45:34;;;;;;;0.85;0.68;;;2.90;99.90;;;;;;5058314;28;20267;-68
2024/01/13 01:48:04;;;;;;;0.47;0.30;;;3.10;99.90;;;;;;5059496;28;20032;-68
2024/01/13 01:50:30;;;;;;;0.40;0.30;;;3.00;99.90;;;;;;5063974;28;20043;-68
2024/01/13 01:52:55;;;;;;;0.10;0.10;;;2.90;99.90;;;;;;5069605;28;20040;-67
2024/01/13 01:55:21;;;;;;;0.50;0.47;;;3.00;99.90;;;;;;5063806;28;20066;-68
2024/01/13 01:57:47;;;;;;;0.32;0.32;;;3.10;99.90;;;;;;5064123;28;20476;-68
2024/01/13 02:00:13;;;;;;;0.30;0.30;;;3.00;99.90;;;;;;5065588;28;20094;-67
2024/01/13 02:02:39;;;;;;;0.28;0.28;;;3.10;99.90;;;;;;5064974;28;20044;-68
2024/01/13 02:05:05;;;;;;;0.30;0.30;;;3.00;99.90;;;;;;5069645;28;20479;-68
2024/01/13 02:07:32;;;;;;;1.20;0.70;;;3.10;99.90;;;;;;5069616;28;20503;-68
2024/01/13 02:09:59;;;;;;;0.57;0.57;;;3.00;99.90;;;;;;5048906;28;20051;-68
2024/01/13 02:12:25;;;;;;;2.83;1.02;;;3.00;99.90;;;;;;5049739;28;20399;-67
2024/01/13 02:14:51;;;;;;;0.30;0.30;;;3.10;99.90;;;;;;5063180;28;20048;-67
2024/01/13 02:17:16;;;;;;;0.52;0.47;;;3.00;99.90;;;;;;5068138;28;20032;-69
2024/01/13 02:19:42;;;;;;;0.40;0.40;;;2.90;99.90;;;;;;5064661;28;20052;-68
2024/01/13 02:22:07;;;;;;;0.17;0.17;;;3.00;99.90;;;;;;5071975;28;20041;-68
2024/01/13 02:24:33;;;;;;;0.75;0.70;;;3.10;99.90;;;;;;5062574;28;20032;-68
2024/01/13 02:26:58;;;;;;;0.75;0.73;;;3.00;99.90;;;;;;5061801;28;20102;-67
2024/01/13 02:29:24;;;;;;;0.65;0.40;;;3.00;99.90;;;;;;5084407;28;20033;-68
2024/01/13 02:31:49;;;;;;;0.32;0.32;;;3.00;99.90;;;;;;5063939;28;20499;-67
2024/01/13 02:34:15;;;;;;;0.40;0.40;;;3.00;99.90;;;;;;5061988;28;20102;-67
2024/01/13 02:36:41;;;;;;;0.20;0.20;;;3.00;99.90;;;;;;5070033;28;20483;-68
2024/01/13 02:39:06;;;;;;;0.20;0.20;;;2.90;99.90;;;;;;5064549;28;20712;-68
2024/01/13 02:41:32;;;;;;;0.25;0.25;;;3.00;99.90;;;;;;5066989;28;20040;-68
2024/01/13 02:43:57;;;;;;;1.05;0.50;;;3.10;99.90;;;;;;5066728;28;20028;-67
2024/01/13 02:46:23;;;;;;;1.83;1.73;;;3.00;99.90;;;;;;5066799;28;20044;-68
2024/01/13 02:48:52;;;;;;;0.22;0.20;;;3.00;99.90;;;;;;5049783;28;20043;-68
2024/01/13 02:51:18;;;;;;;1.02;0.55;;;3.10;99.90;;;;;;5065394;28;20052;-68
2024/01/13 02:53:44;;;;;;;0.30;0.30;;;2.90;99.90;;;;;;5064189;28;20028;-67
2024/01/13 02:56:10;;;;;;;0.10;0.10;;;3.00;99.90;;;;;;5063032;28;20087;-68
2024/01/13 02:58:35;;;;;;;0.10;0.10;;;3.00;99.90;;;;;;5065551;28;20025;-68
2024/01/13 03:01:06;;;;;;;0.20;0.20;;;3.00;99.90;;;;;;5062902;28;20044;-68
2024/01/13 03:03:35;;;;;;;0.35;0.28;;;3.00;99.90;;;;;;5065307;28;20487;-69
2024/01/13 03:06:03;;;;;;;2.08;1.23;;;3.00;99.90;;;;;;5066893;28;20491;-68
2024/01/13 03:08:28;;;;;;;0.20;0.20;;;3.00;99.90;;;;;;5058949;28;20085;-68
2024/01/13 03:10:54;;;;;;;2.53;0.82;;;3.00;99.90;;;;;;5069737;28;20037;-68
2024/01/13 03:13:20;;;;;;;0.30;0.30;;;2.90;99.90;;;;;;5060181;28;20045;-68
2024/01/13 03:15:45;;;;;;;1.98;1.27;;;2.90;99.90;;;;;;5074392;28;20085;-68
2024/01/13 03:18:11;;;;;;;0.40;0.38;;;3.00;99.90;;;;;;5059985;28;20076;-68
2024/01/13 03:20:36;;;;;;;0.30;0.30;;;3.00;99.90;;;;;;5066019;28;20044;-67
2024/01/13 03:23:02;;;;;;;0.35;0.35;;;3.10;99.90;;;;;;5059810;28;20514;-68
2024/01/13 03:25:27;;;;;;;7.55;2.17;;;3.00;99.90;;;;;;5060991;28;20067;-69
2024/01/13 03:27:53;;;;;;;0.00;0.00;;;3.00;99.90;;;;;;5061206;28;20051;-68
2024/01/13 03:30:18;;;;;;;0.20;0.20;;;3.10;99.90;;;;;;5065444;28;20045;-67
2024/01/13 03:32:44;;;;;;;0.28;0.28;;;3.00;99.90;;;;;;5059285;28;20044;-68
2024/01/13 03:35:10;;;;;;;0.40;0.20;;;3.00;99.90;;;;;;5065098;28;20036;-68
2024/01/13 03:37:35;;;;;;;0.68;0.68;;;3.00;99.90;;;;;;5061952;28;20029;-68
2024/01/13 03:40:01;;;;;;;0.38;0.38;;;2.90;99.90;;;;;;5063554;28;20380;-68
2024/01/13 03:42:27;;;;;;;0.20;0.20;;;3.10;99.90;;;;;;5063132;28;20044;-68
2024/01/13 03:44:54;;;;;;;5.13;0.30;;;3.00;99.90;;;;;;5061671;28;20033;-69
2024/01/13 03:47:20;;;;;;;1.23;0.35;;;3.00;99.90;;;;;;5046783;28;20115;-68
2024/01/13 03:49:45;;;;;;;0.63;0.50;;;3.00;99.90;;;;;;5090065;28;20821;-69
2024/01/13 03:52:11;;;;;;;0.90;0.55;;;2.90;99.90;;;;;;5064703;28;20134;-68
2024/01/13 03:54:36;;;;;;;1.45;0.30;;;3.10;99.90;;;;;;5063825;28;20044;-68
2024/01/13 03:57:02;;;;;;;0.52;0.52;;;3.00;99.90;;;;;;5094358;28;20056;-68
2024/01/13 03:59:28;;;;;;;2.58;0.57;;;3.00;99.90;;;;;;5060325;28;20492;-68
2024/01/13 04:01:53;;;;;;;0.30;0.30;;;3.10;99.90;;;;;;5073389;28;20483;-68
2024/01/13 04:04:19;;;;;;;0.28;0.28;;;3.00;99.90;;;;;;5096008;28;20651;-69
2024/01/13 04:06:44;;;;;;;0.35;0.35;;;2.90;99.90;;;;;;5071766;28;20416;-69
2024/01/13 04:09:10;;;;;;;0.47;0.47;;;3.00;99.90;;;;;;5064836;28;20041;-68
2024/01/13 04:11:35;;;;;;;0.28;0.28;;;3.00;99.90;;;;;;5060171;28;20400;-68
2024/01/13 04:14:01;;;;;;;0.20;0.20;;;2.90;99.90;;;;;;5085811;28;20113;-69
2024/01/13 04:16:27;;;;;;;0.32;0.30;;;3.00;99.90;;;;;;5067957;28;20033;-68
2024/01/13 04:18:52;;;;;;;1.35;0.28;;;3.00;99.90;;;;;;5065946;28;20040;-69
2024/01/13 04:21:18;;;;;;;0.10;0.10;;;3.00;99.90;;;;;;5064120;28;20083;-68
2024/01/13 04:23:44;;;;;;;0.52;0.52;;;3.00;99.90;;;;;;5067423;28;20055;-69
2024/01/13 04:26:09;;;;;;;0.10;0.10;;;3.10;99.90;;;;;;5049499;28;20444;-69
2024/01/13 04:28:35;;;;;;;0.10;0.10;;;2.90;99.90;;;;;;5094068;28;20036;-69
2024/01/13 04:31:00;;;;;;;0.10;0.10;;;3.00;99.90;;;;;;5062807;28;20048;-68
2024/01/13 04:33:26;;;;;;;0.20;0.20;;;2.90;99.90;;;;;;5061237;28;20162;-68
2024/01/13 04:35:51;;;;;;;0.20;0.20;;;3.00;99.90;;;;;;5062546;28;20399;-69
2024/01/13 04:38:17;;;;;;;0.28;0.28;;;3.10;99.90;;;;;;5048393;28;20475;-69
2024/01/13 04:40:47;;;;;;;0.20;0.20;;;3.10;99.90;;;;;;5064792;28;20059;-68
2024/01/13 04:43:13;;;;;;;0.20;0.20;;;2.90;99.90;;;;;;5083878;28;20041;-68
2024/01/13 04:45:38;;;;;;;0.20;0.20;;;3.00;99.90;;;;;;5060567;28;20071;-68
2024/01/13 04:48:04;;;;;;;0.20;0.20;;;3.10;99.90;;;;;;5064049;28;20102;-68
2024/01/13 04:50:30;;;;;;;5.43;0.50;;;3.00;99.90;;;;;;5068996;28;20068;-68
2024/01/13 04:52:55;;;;;;;0.10;0.10;;;2.90;99.90;;;;;;5060976;28;20348;-68
2024/01/13 04:55:21;;;;;;;0.38;0.38;;;3.00;99.90;;;;;;5071976;28;20423;-69
2024/01/13 04:57:47;;;;;;;1.85;0.30;;;2.90;99.90;;;;;;5065637;28;20385;-70
2024/01/13 05:00:13;;;;;;;0.30;0.30;;;2.90;99.90;;;;;;5065008;28;20380;-69
2024/01/13 05:02:39;;;;;;;0.13;0.13;;;2.80;99.90;;;;;;5065075;28;20045;-69
2024/01/13 05:05:05;;;;;;;0.10;0.10;;;3.00;99.90;;;;;;5067618;28;20043;-67
2024/01/13 05:07:30;;;;;;;0.20;0.20;;;2.80;99.90;;;;;;5069315;28;20081;-69
2024/01/13 05:09:56;;;;;;;0.52;0.25;;;2.90;99.90;;;;;;5054844;28;20040;-70
2024/01/13 05:12:21;;;;;;;0.98;0.22;;;2.90;99.90;;;;;;5069126;28;20040;-68
2024/01/13 05:14:47;;;;;;;1.95;1.20;;;2.80;99.90;;;;;;5063091;28;20064;-68
2024/01/13 05:17:13;;;;;;;0.20;0.20;;;2.80;99.90;;;;;;5061183;28;20044;-68
2024/01/13 05:19:38;;;;;;;0.10;0.10;;;2.70;99.90;;;;;;5058688;28;20372;-68
2024/01/13 05:22:04;;;;;;;3.45;0.28;;;2.80;99.90;;;;;;5067349;28;20037;-68
2024/01/13 05:24:29;;;;;;;0.20;0.20;;;2.80;99.90;;;;;;5068173;28;20036;-68
2024/01/13 05:26:55;;;;;;;0.20;0.20;;;2.90;99.90;;;;;;5064810;28;20439;-68
2024/01/13 05:29:22;;;;;;;0.50;0.15;;;2.80;99.90;;;;;;5063051;28;20051;-68
2024/01/13 05:31:47;;;;;;;0.40;0.40;;;2.80;99.90;;;;;;5064909;28;20095;-68
2024/01/13 05:34:13;;;;;;;0.10;0.10;;;2.90;99.90;;;;;;5070711;28;20036;-69
2024/01/13 05:36:39;;;;;;;0.55;0.55;;;2.90;99.90;;;;;;5062660;28;20048;-68
2024/01/13 05:39:04;;;;;;;0.17;0.17;;;2.90;99.90;;;;;;5091805;28;20067;-68
2024/01/13 05:41:30;;;;;;;0.10;0.10;;;2.90;99.90;;;;;;5049549;28;20081;-69
2024/01/13 05:43:55;;;;;;;0.30;0.30;;;3.00;99.90;;;;;;5067470;28;20048;-69
2024/01/13 05:46:21;;;;;;;0.30;0.30;;;2.90;99.90;;;;;;5063813;28;20044;-70
2024/01/13 05:48:46;;;;;;;3.30;0.40;;;3.00;99.90;;;;;;5069925;28;20467;-68
2024/01/13 05:51:12;;;;;;;0.47;0.35;;;3.00;99.90;;;;;;5064136;28;20071;-69
2024/01/13 05:53:38;;;;;;;0.10;0.10;;;2.90;99.90;;;;;;5086965;28;20407;-70
2024/01/13 05:56:05;;;;;;;0.52;0.52;;;2.80;99.90;;;;;;5067887;28;20042;-68
2024/01/13 05:58:30;;;;;;;0.30;0.30;;;2.80;99.90;;;;;;5052578;28;20491;-69
2024/01/13 06:00:56;;;;;;;0.10;0.10;;;2.90;99.90;;;;;;5067141;28;20048;-70
2024/01/13 06:03:21;;;;;;;0.52;0.52;;;2.90;99.90;;;;;;5066830;28;20099;-69
2024/01/13 06:05:47;;;;;;;0.10;0.10;;;2.80;99.90;;;;;;5066454;28;20395;-69
2024/01/13 06:08:12;;;;;;;0.68;0.35;;;3.00;99.90;;;;;;5064663;28;20060;-69
2024/01/13 06:10:38;;;;;;;1.38;0.30;;;2.90;99.90;;;;;;5068671;28;20045;-69
2024/01/13 06:13:03;;;;;;;0.40;0.40;;;2.90;99.90;;;;;;5065213;28;20225;-69
2024/01/13 06:15:29;;;;;;;0.20;0.20;;;3.00;99.90;;;;;;5066448;28;20259;-70
2024/01/13 06:17:55;;;;;;;0.63;0.60;;;3.10;99.90;;;;;;5061872;28;20036;-70
2024/01/13 06:20:20;;;;;;;0.10;0.10;;;3.10;99.90;;;;;;5074259;28;20123;-69
2024/01/13 06:22:46;;;;;;;0.55;0.20;;;3.10;99.90;;;;;;5066862;28;20101;-70
2024/01/13 06:25:11;;;;;;;0.98;0.50;;;3.10;99.90;;;;;;5059324;28;20139;-69
2024/01/13 06:27:38;;;;;;;0.10;0.10;;;3.10;99.90;;;;;;5066030;28;20036;-69
2024/01/13 06:30:04;;;;;;;0.30;0.20;;;3.10;99.90;;;;;;5070272;28;20040;-69
2024/01/13 06:32:29;;;;;;;0.10;0.10;;;3.20;99.90;;;;;;5064136;28;20058;-68
2024/01/13 06:34:55;;;;;;;0.17;0.17;;;3.10;99.90;;;;;;5064813;28;20492;-70
2024/01/13 06:37:20;;;;;;;0.10;0.10;;;3.10;99.90;;;;;;5061831;28;20535;-69
2024/01/13 06:39:46;;;;;;;0.10;0.10;;;3.00;99.90;;;;;;5065208;28;20090;-69
2024/01/13 06:42:12;;;;;;;0.00;0.00;;;3.00;99.90;;;;;;5064371;28;20067;-69
2024/01/13 06:44:37;;;;;;;0.10;0.10;;;3.00;99.90;;;;;;5065749;28;20388;-70
2024/01/13 06:47:04;;;;;;;0.28;0.28;;;3.10;99.90;;;;;;5065305;28;20472;-70
2024/01/13 06:49:30;;;;;;;0.22;0.22;;;3.10;99.90;;;;;;5069170;28;20028;-69
2024/01/13 06:51:56;;;;;;;0.10;0.10;;;3.10;99.90;;;;;;5060931;28;20102;-70
2024/01/13 06:54:21;;;;;;;0.10;0.10;;;3.30;99.90;;;;;;5066629;28;20045;-69
2024/01/13 06:56:47;;;;;;;0.20;0.20;;;3.30;99.90;;;;;;5063186;28;20491;-69
2024/01/13 06:59:12;;;;;;;0.10;0.10;;;3.20;99.90;;;;;;5064283;28;20721;-69
2024/01/13 07:01:38;;;;;;;0.17;0.17;;;3.20;99.90;;;;;;5064216;28;20075;-69
2024/01/13 07:04:03;;;;;;;0.00;0.00;;;3.30;99.90;;;;;;5063066;28;20075;-69
2024/01/13 07:06:29;;;;;;;0.55;0.45;;;3.20;99.90;;;;;;5067135;28;20473;-68
2024/01/13 07:08:57;;;;;;;0.10;0.10;;;3.40;99.90;;;;;;5065312;28;20229;-70
2024/01/13 07:11:23;;;;;;;0.10;0.10;;;3.20;99.90;;;;;;5067435;28;20037;-67
2024/01/13 07:13:48;;;;;;;0.45;0.45;;;3.40;99.90;;;;;;5061379;28;20368;-71
2024/01/13 07:16:14;;;;;;;0.20;0.20;;;3.20;99.90;;;;;;5065891;28;20043;-70
2024/01/13 07:18:39;;;;;;;0.40;0.40;;;3.20;99.90;;;;;;5067323;28;20036;-69
2024/01/13 07:21:08;;;;;;;0.15;0.15;;;3.30;99.90;;;;;;5060445;28;20071;-69
2024/01/13 07:23:34;;;;;;;0.52;0.43;;;3.20;99.90;;;;;;5062901;28;20044;-69
2024/01/13 07:26:00;;;;;;;0.63;0.35;;;3.30;99.90;;;;;;5097232;27;20398;-69
2024/01/13 07:28:26;;;;;;;0.10;0.10;;;3.40;99.90;;;;;;5043280;28;20076;-69
2024/01/13 07:30:52;;;;;;;0.20;0.20;;;3.40;99.90;;;;;;5066494;28;20091;-70
2024/01/13 07:33:17;;;;;;;0.20;0.20;;;3.30;99.90;;;;;;5060999;28;20468;-69
2024/01/13 07:35:43;;;;;;;0.10;0.10;;;3.20;99.90;;;;;;5063699;28;20040;-67
2024/01/13 07:38:08;;;;;;;0.10;0.10;;;3.20;99.90;;;;;;5063568;28;20040;-68
2024/01/13 07:40:34;;;;;;;0.13;0.13;;;3.40;99.90;;;;;;5065571;28;20048;-68
2024/01/13 07:42:59;;;;;;;1.40;0.30;;;3.30;99.90;;;;;;5047829;28;20202;-69
2024/01/13 07:45:25;;;;;;;0.10;0.10;;;3.30;99.90;;;;;;5067213;28;20083;-70
2024/01/13 07:47:50;;;;;;;0.10;0.10;;;3.40;99.90;;;;;;5065742;28;20071;-69
2024/01/13 07:50:17;;;;;;;0.30;0.10;;;3.40;99.90;;;;;;5071482;28;20036;-69
2024/01/13 07:52:42;;;;;;;0.20;0.20;;;3.40;99.90;;;;;;5059336;28;20051;-69
2024/01/13 07:55:09;;;;;;;0.35;0.35;;;3.40;99.90;;;;;;5089135;28;20037;-68
2024/01/13 07:57:35;;;;;;;0.10;0.10;;;3.50;99.90;;;;;;5062539;28;20036;-68
2024/01/13 08:00:01;;;;;;;0.20;0.20;;;3.30;99.90;;;;;;5086289;28;20035;-69
2024/01/13 08:02:26;;;;;;;0.10;0.10;;;3.40;99.90;;;;;;5059992;28;20054;-67
2024/01/13 08:04:52;;;;;;;0.50;0.50;;;3.40;99.90;;;;;;5092071;28;20059;-68
2024/01/13 08:07:19;;;;;;;0.10;0.10;;;3.50;99.90;;;;;;5060536;28;20041;-68
2024/01/13 08:09:46;;;;;;;0.20;0.20;;;3.50;99.90;;;;;;5068346;28;20131;-70
2024/01/13 08:12:11;;;;;;;0.38;0.38;;;3.40;99.90;;;;;;5061943;28;20042;-70
2024/01/13 08:14:37;;;;;;;0.10;0.10;;;3.40;99.90;;;;;;5064990;28;20036;-67
2024/01/13 08:17:03;;;;;;;0.22;0.22;;;3.50;99.90;;;;;;5064078;28;20064;-68
2024/01/13 08:19:28;;;;;;;0.20;0.20;;;3.50;99.90;;;;;;5063882;28;20029;-69
2024/01/13 08:21:54;;;;;;;0.40;0.40;;;3.60;99.90;;;;;;5065578;28;20071;-69
2024/01/13 08:24:19;;;;;;;0.10;0.10;;;3.60;99.90;;;;;;5063665;28;20124;-71
2024/01/13 08:26:45;;;;;;;3.08;0.55;;;3.60;99.90;;;;;;5065540;28;20055;-69
2024/01/13 08:29:10;;;;;;;0.55;0.30;;;3.50;99.90;;;;;;5059039;28;20044;-70
2024/01/13 08:31:36;;;;;;;0.10;0.10;;;3.70;99.90;;;;;;5066895;28;20044;-70
2024/01/13 08:34:01;;;;;;;0.45;0.45;;;3.50;99.90;;;;;;5064338;28;20403;-69
2024/01/13 08:36:27;;;;;;;5.45;0.80;;;3.60;99.90;;;;;;5065868;28;20033;-68
2024/01/13 08:38:52;;;;;;;0.20;0.20;;;3.50;99.90;;;;;;5063061;28;20106;-68
2024/01/13 08:41:18;;;;;;;1.42;0.90;;;3.60;99.90;;;;;;5046253;28;20051;-69
2024/01/13 08:43:43;;;;;;;0.38;0.38;;;3.50;99.90;;;;;;5060962;28;20040;-69
2024/01/13 08:46:10;;;;;;;0.82;0.82;;;3.60;99.90;;;;;;5061749;28;20036;-69
2024/01/13 08:48:35;;;;;;;3.15;0.95;;;3.60;99.90;;;;;;5065122;28;20399;-69
2024/01/13 08:51:01;;;;;;;0.57;0.57;;;3.50;99.90;;;;;;5063624;28;20045;-68
2024/01/13 08:53:27;;;;;;;1.05;0.93;;;3.60;99.90;;;;;;5062224;28;20041;-69
2024/01/13 08:55:53;;;;;;;3.60;1.90;;;3.60;99.90;;;;;;5065251;28;20505;-69
2024/01/13 08:58:19;;;;;;;1.70;0.77;;;3.60;99.90;;;;;;5056966;28;20032;-68
2024/01/13 09:00:44;;;;;;;2.38;1.20;;;3.60;99.90;;;;;;5073153;28;20044;-68
2024/01/13 09:03:10;;;;;;;0.35;0.35;;;3.50;99.90;;;;;;5070075;28;20131;-69
2024/01/13 09:05:36;;;;;;;1.75;1.23;;;3.60;99.90;;;;;;5075090;28;20044;-69
2024/01/13 09:08:02;;;;;;;0.88;0.85;;;3.60;99.90;;;;;;5063484;28;20056;-69
2024/01/13 09:10:28;;;;;;;3.40;1.05;;;3.60;99.90;;;;;;5061678;28;20044;-69
2024/01/13 09:12:54;;;;;;;2.33;1.48;;;3.50;99.90;;;;;;5068738;28;20039;-69
2024/01/13 09:15:19;;;;;;;1.38;1.23;;;3.50;99.90;;;;;;5069824;28;20039;-70
2024/01/13 09:17:45;;;;;;;1.05;1.05;;;3.50;99.90;;;;;;5067509;28;20044;-70
2024/01/13 09:20:11;;;;;;;2.72;1.65;;;3.50;99.90;;;;;;5070592;28;20466;-70
2024/01/13 09:22:37;;;;;;;2.15;1.63;;;3.50;99.90;;;;;;5051815;28;21663;-70
2024/01/13 09:25:03;;;;;;;6.00;1.45;;;3.50;99.90;;;;;;5064275;28;20048;-70
2024/01/13 09:27:29;;;;;;;1.30;1.25;;;3.50;99.90;;;;;;5065612;28;20040;-71
2024/01/13 09:29:54;;;;;;;2.95;1.00;;;3.50;99.90;;;;;;5053664;28;20047;-69
2024/01/13 09:32:20;;;;;;;2.33;1.63;;;3.50;99.90;;;;;;5074932;28;20055;-69
2024/01/13 09:34:46;;;;;;;7.45;2.65;;;3.50;99.90;;;;;;5064430;28;20037;-71
2024/01/13 09:37:14;;;;;;;3.53;1.00;;;3.50;99.90;;;;;;5068522;28;20075;-69
2024/01/13 09:39:39;;;;;;;3.72;3.33;;;3.60;99.90;;;;;;5052491;28;20032;-69
2024/01/13 09:42:05;;;;;;;6.72;2.17;;;3.50;99.90;;;;;;5071433;28;20418;-69
2024/01/13 09:44:32;;;;;;;2.30;1.42;;;3.50;99.90;;;;;;5066587;28;20093;-70
2024/01/13 09:47:00;;;;;;;3.60;1.05;;;3.50;99.90;;;;;;5097230;28;20123;-68
2024/01/13 09:49:30;;;;;;;2.08;1.70;;;3.60;99.90;;;;;;5063796;28;20039;-68
2024/01/13 09:51:57;;;;;;;6.13;1.48;;;3.50;99.90;;;;;;5072122;28;20444;-71
2024/01/13 09:54:30;;;;;;;4.05;2.03;;;3.50;99.90;;;;;;5067253;28;20071;-69
2024/01/13 09:56:57;;;;;;;3.42;1.65;;;3.50;99.90;;;;;;5069232;28;20376;-69
2024/01/13 09:59:25;;;;;;;0.85;0.85;;;3.50;99.90;;;;;;5089319;28;20104;-68
2024/01/13 10:01:52;;;;;;;3.05;2.22;;;3.60;99.90;;;;;;5091955;28;20047;-71
2024/01/13 10:04:17;;;;;;;1.95;1.23;;;3.60;99.90;;;;;;5066205;28;20127;-70
2024/01/13 10:06:45;;;;;;;3.60;1.52;;;3.50;99.90;;;;;;5068663;28;20151;-71
2024/01/13 10:09:11;;;;;;;4.20;2.45;;;3.60;99.90;;;;;;5066495;28;20043;-70
2024/01/13 10:11:37;;;;;;;7.32;1.75;;;3.50;99.90;;;;;;5061199;28;20385;-68
2024/01/13 10:14:04;;;;;;;2.35;1.88;;;3.50;99.90;;;;;;5065685;28;20040;-71
2024/01/13 10:16:32;;;;;;;3.55;2.35;;;3.50;99.90;;;;;;5047499;28;20037;-72
2024/01/13 10:19:05;;;;;;;1.45;1.35;;;3.50;99.90;;;;;;5065129;28;20040;-69
2024/01/13 10:21:31;;;;;;;6.97;3.72;;;3.70;99.90;;;;;;5091719;28;20036;-71
2024/01/13 10:23:59;;;;;;;12.65;3.78;;;3.70;99.90;;;;;;5065073;28;20039;-69
2024/01/13 10:26:25;;;;;;;7.85;2.53;;;3.60;99.90;;;;;;5067657;28;20538;-69
2024/01/13 10:28:51;;;;;;;5.03;3.47;;;3.70;99.90;;;;;;5064289;28;20044;-69
2024/01/13 10:31:18;;;;;;;3.65;2.08;;;3.70;99.90;;;;;;5065021;28;20036;-70
2024/01/13 10:33:48;;;;;;;4.50;2.78;;;3.80;99.90;;;;;;5061136;28;20040;-71
2024/01/13 10:36:21;;;;;;;3.67;2.38;;;3.80;99.90;;;;;;5075002;28;20040;-70
2024/01/13 10:38:46;;;;;;;3.10;1.95;;;3.80;99.90;;;;;;5065683;28;20036;-68
2024/01/13 10:41:12;;;;;;;1.70;1.23;;;3.70;99.90;;;;;;5066674;28;20044;-68
2024/01/13 10:43:40;;;;;;;1.85;1.52;;;3.80;99.90;;;;;;5067996;28;20044;-69
2024/01/13 10:46:13;;;;;;;5.93;2.22;;;3.80;99.90;;;;;;5064814;28;20079;-69
2024/01/13 10:48:43;;;;;;;2.65;2.40;;;3.90;99.90;;;;;;5062775;28;20186;-68
2024/01/13 10:51:37;;;;;;;6.45;2.53;;;3.80;99.90;;;;;;5064777;28;20045;-68
2024/01/13 10:54:03;;;;;;;16.48;4.82;;;3.80;99.90;;;;;;5070988;28;20446;-69
2024/01/13 10:56:30;;;;;;;4.53;2.90;;;3.90;99.90;;;;;;5056890;28;20422;-68
2024/01/13 10:58:57;;;;;;;5.85;2.92;;;3.90;99.90;;;;;;5061087;28;20056;-68
2024/01/13 11:01:26;;;;;;;5.82;3.50;;;4.00;99.90;;;;;;5051578;28;20582;-69
2024/01/13 11:03:54;;;;;;;3.95;3.03;;;4.00;99.90;;;;;;5047139;28;20048;-70
2024/01/13 11:06:23;;;;;;;3.17;2.72;;;4.00;99.90;;;;;;5066450;28;20047;-68
2024/01/13 11:08:48;;;;;;;11.88;2.88;;;4.00;99.90;;;;;;5062702;28;20125;-69
2024/01/13 11:11:21;;;;;;;1.42;1.33;;;4.00;99.90;;;;;;5088917;28;20104;-68
2024/01/13 11:14:18;;;;;;;4.13;2.90;;;4.10;99.90;;;;;;5058596;28;20048;-68
2024/01/13 11:16:44;;;;;;;10.70;4.43;;;4.10;99.90;;;;;;5058024;28;20311;-68
2024/01/13 11:19:11;;;;;;;5.50;2.75;;;4.10;99.90;;;;;;5065574;28;20085;-67
2024/01/13 11:21:36;;;;;;;13.50;3.95;;;4.10;99.90;;;;;;5067035;28;20510;-68
2024/01/13 11:24:10;;;;;;;13.65;4.55;;;4.10;99.90;;;;;;5050495;28;20036;-67
2024/01/13 11:26:43;;;;;;;4.05;2.25;;;4.20;99.90;;;;;;5066355;28;20514;-71
2024/01/13 11:29:28;;;;;;;9.13;3.08;;;4.10;99.90;;;;;;5061674;28;20701;-68
2024/01/13 11:31:59;;;;;;;2.58;1.90;;;4.20;99.90;;;;;;5067796;28;20045;-68
2024/01/13 11:34:27;;;;;;;5.88;2.65;;;4.20;99.90;;;;;;5065698;28;20083;-69
2024/01/13 11:36:56;;;;;;;5.50;3.55;;;4.10;99.90;;;;;;5062226;28;20055;-67
2024/01/13 11:39:22;;;;;;;3.97;2.80;;;4.20;99.90;;;;;;5087909;28;20109;-68
2024/01/13 11:41:57;;;;;;;3.30;2.22;;;4.20;99.90;;;;;;5061219;28;20101;-67
2024/01/13 11:44:34;;;;;;;6.65;2.70;;;4.10;99.90;;;;;;5060694;28;20434;-70
2024/01/13 11:47:05;;;;;;;3.72;2.83;;;4.00;99.90;;;;;;5084409;28;20044;-67
2024/01/13 11:49:36;;;;;;;5.65;2.65;;;4.10;99.90;;;;;;5061820;28;20051;-69
2024/01/13 11:52:09;;;;;;;2.65;2.40;;;4.10;99.90;;;;;;5064739;28;20089;-68
2024/01/13 11:54:36;;;;;;;5.20;2.63;;;4.10;99.90;;;;;;5086688;28;20499;-66
2024/01/13 11:57:09;;;;;;;4.57;2.90;;;4.00;99.90;;;;;;5067916;28;20071;-67
2024/01/13 11:59:35;;;;;;;9.02;2.22;;;4.10;99.90;;;;;;5054103;28;20037;-68
2024/01/13 12:02:02;;;;;;;2.30;1.73;;;4.10;99.90;;;;;;5056372;28;20527;-68
2024/01/13 12:04:29;;;;;;;8.05;2.83;;;4.20;99.90;;;;;;5066000;28;20072;-68
2024/01/13 12:06:55;;;;;;;4.50;3.70;;;4.20;99.90;;;;;;5060139;28;20041;-70
2024/01/13 12:09:22;;;;;;;8.60;4.35;;;4.30;99.90;;;;;;5089690;28;20636;-70
2024/01/13 12:12:06;;;;;;;5.32;2.50;;;4.30;99.90;;;;;;5068840;28;20072;-70
2024/01/13 12:14:34;;;;;;;2.92;2.05;;;4.40;99.90;;;;;;5057105;28;20033;-67
2024/01/13 12:17:01;;;;;;;2.13;2.00;;;4.40;99.90;;;;;;5050607;28;20045;-71
2024/01/13 12:19:32;;;;;;;5.97;2.78;;;4.30;99.90;;;;;;5054346;28;20029;-67
2024/01/13 12:21:58;;;;;;;9.30;3.08;;;4.40;99.90;;;;;;5061834;28;20071;-68
2024/01/13 12:24:28;;;;;;;5.72;2.83;;;4.40;99.90;;;;;;5063339;28;20163;-68
2024/01/13 12:26:54;;;;;;;4.28;2.35;;;4.50;99.90;;;;;;5058153;28;20063;-68
2024/01/13 12:29:29;;;;;;;8.80;2.42;;;4.40;99.90;;;;;;5059317;28;20123;-67
2024/01/13 12:32:05;;;;;;;7.97;2.60;;;4.50;99.90;;;;;;5050644;28;20036;-67
2024/01/13 12:34:34;;;;;;;13.07;4.30;;;4.40;99.90;;;;;;5059395;28;20123;-77
2024/01/13 12:37:02;;;;;;;5.50;3.10;;;4.50;99.90;;;;;;5070888;28;20111;-79
2024/01/13 12:39:28;;;;;;;8.48;2.40;;;4.50;99.90;;;;;;5065358;28;20070;-77
2024/01/13 12:41:53;;;;;;;4.10;1.08;;;4.50;99.90;;;;;;5065632;28;20044;-76
2024/01/13 12:44:23;;;;;;;5.75;2.30;;;4.50;99.90;;;;;;5061597;28;20110;-76
2024/01/13 12:46:56;;;;;;;2.10;1.38;;;4.40;99.90;;;;;;5067315;28;20049;-75
2024/01/13 12:49:23;;;;;;;6.75;2.13;;;4.40;99.90;;;;;;5057978;28;20033;-77
2024/01/13 12:51:54;;;;;;;9.02;4.75;;;4.40;99.90;;;;;;5056557;28;20518;-75
2024/01/13 12:54:20;;;;;;;1.33;1.15;;;4.40;99.90;;;;;;5065420;28;20051;-76